This is the latest recevied weather packets stored in our database for station/object KCCA. If no packets are shown the sender has not sent any weather packets the latest 10 day(s).
| Time | Temp. | Humidity | Pressure | Rain* | Wind** | Luminosity | Snow |
|---|---|---|---|---|---|---|---|
| 1777834413 | 22.78° C | 38% | 1018.3 hPa | - | - | - | - |
| 1777833810 | 22.78° C | 38% | 1018.3 hPa | - | - | - | - |
| 1777833215 | 21.67° C | 37% | 1018.6 hPa | - | - | - | - |
| 1777832611 | 21.67° C | 37% | 1018.6 hPa | - | - | - | - |
| 1777832012 | 21.67° C | 37% | 1019 hPa | - | - | - | - |
| 1777831410 | 21.67° C | 37% | 1019 hPa | - | - | - | - |
| 1777830812 | 20.56° C | 37% | 1019.6 hPa | - | - | - | - |
| 1777830208 | 20.56° C | 37% | 1019.6 hPa | - | - | - | - |
| 1777829610 | 20.56° C | 37% | 1020 hPa | - | - | - | - |
| 1777829008 | 20.56° C | 37% | 1020 hPa | - | - | - | - |
| 1777828409 | 20° C | 40% | 1020.3 hPa | - | - | - | - |
| 1777827811 | 20° C | 40% | 1020.3 hPa | - | - | - | - |
| 1777827215 | 20° C | 37% | 1022 hPa | - | - | - | - |
| 1777826611 | 20° C | 37% | 1022 hPa | - | - | - | - |
| 1777826015 | 18.89° C | 42% | 1021 hPa | - | - | - | - |
| 1777825414 | 18.89° C | 42% | 1021 hPa | - | - | - | - |
| 1777824813 | 18.89° C | 42% | 1021.3 hPa | - | - | - | - |
| 1777824216 | 18.89° C | 42% | 1021.3 hPa | - | - | - | - |
| 1777823614 | 17.78° C | 45% | 1022 hPa | - | - | - | - |
| 1777823014 | 17.78° C | 45% | 1022 hPa | - | - | - | - |
| 1777822414 | 16.67° C | 51% | 1021.7 hPa | - | - | - | - |
| 1777821815 | 16.67° C | 51% | 1021.7 hPa | - | - | - | - |
| 1777821213 | 15.56° C | 55% | 1021.7 hPa | - | - | - | - |
| 1777820613 | 15.56° C | 55% | 1021.7 hPa | - | - | - | - |
| 1777820015 | 13.89° C | 62% | 1022 hPa | - | - | - | - |
* Rain since midnight (hover to see other rain measurements)
** Current wind speed in m/s (hover to see current wind gust speed)